Search for airport 
image banner adimage banner adimage banner ad
image banner ad

56PA - Hoge Farm

Located in Tinicum, United States

ICAO - 56PA, IATA -

Data provided by Airmate  

General information

Coordinates: N40°28'10" W75°4'56"
Elevation is 430 feet MSL.
Magnetic variation is -12° East
View others Airports in Pennsylvania

Operational data

Special qualification required
Current time UTC:
Current local time:
Weather at : KDYL - Doylestown ( 16 km )
METAR: KDYL 182354Z AUTO 23004KT 10SM CLR 24/06 A3024 RMK AO2 SLP236 T02440056 10272 20244 55005
View NOTAMs / SUP AIP / TFR affecting this airport [VIEW]
Communications frequencies: [VIEW]

Runways:

RWY identifierQFULength (ft)Width (ft)SurfaceLDA (ft)
062200100GRASS
242200100GRASS
151800100GRASS
331800100GRASS

Airport contact information

Address: Tinicum United States

Satellite view of 56PA